createdAt,value
2019-05-25T00:00:39.149Z,15.30
2019-05-25T00:01:43.392Z,15.30
2019-05-25T00:02:48.182Z,15.30
2019-05-25T00:03:52.395Z,15.30
2019-05-25T00:04:57.165Z,15.20
2019-05-25T00:06:01.385Z,15.30
2019-05-25T00:07:06.240Z,15.20
2019-05-25T00:08:10.437Z,15.20
2019-05-25T00:09:15.224Z,15.20
2019-05-25T00:10:19.416Z,15.20
2019-05-25T00:11:24.232Z,15.20
2019-05-25T00:12:28.434Z,15.20
2019-05-25T00:13:33.199Z,15.20
2019-05-25T00:14:37.445Z,15.20
2019-05-25T00:15:42.223Z,15.20
2019-05-25T00:16:46.439Z,15.10
2019-05-25T00:17:51.239Z,15.10
2019-05-25T00:18:55.436Z,15.10
2019-05-25T00:20:00.205Z,15.10
2019-05-25T00:21:04.397Z,15.10
2019-05-25T00:22:09.209Z,15.10
2019-05-25T00:23:13.403Z,15.10
2019-05-25T00:24:18.176Z,15.10
2019-05-25T00:25:22.373Z,15.10
2019-05-25T00:26:27.144Z,15.10
2019-05-25T00:27:31.444Z,15.10
2019-05-25T00:28:36.224Z,15.00
2019-05-25T00:29:40.405Z,15.00
2019-05-25T00:30:45.337Z,15.00
2019-05-25T00:31:49.596Z,15.00
2019-05-25T00:32:54.429Z,15.00
2019-05-25T00:33:58.631Z,15.00
2019-05-25T00:35:03.426Z,15.00
2019-05-25T00:36:07.624Z,15.00
2019-05-25T00:37:12.619Z,15.00
2019-05-25T00:38:16.822Z,14.90
2019-05-25T00:39:21.582Z,14.90
2019-05-25T00:40:25.773Z,14.90
2019-05-25T00:41:30.541Z,14.90
2019-05-25T00:42:34.755Z,14.90
2019-05-25T00:43:39.585Z,14.90
2019-05-25T00:44:43.777Z,14.90
2019-05-25T00:45:48.548Z,14.80
2019-05-25T00:46:52.745Z,14.80
2019-05-25T00:47:57.638Z,14.80
2019-05-25T00:49:02.276Z,14.80
2019-05-25T00:50:07.679Z,14.80
2019-05-25T00:51:11.878Z,14.80
2019-05-25T00:52:16.681Z,14.80
2019-05-25T00:53:20.860Z,14.70
2019-05-25T00:54:28.198Z,14.70
2019-05-25T00:55:31.489Z,14.70
2019-05-25T00:56:36.277Z,14.70
2019-05-25T00:57:40.504Z,14.70
2019-05-25T00:58:45.286Z,14.70
2019-05-25T00:59:49.483Z,14.70
2019-05-25T01:00:54.330Z,14.70
2019-05-25T01:01:58.476Z,14.60
2019-05-25T01:03:03.305Z,14.60
2019-05-25T01:04:07.493Z,14.60
2019-05-25T01:05:12.302Z,14.60
2019-05-25T01:06:16.483Z,14.50
2019-05-25T01:07:21.272Z,14.50
2019-05-25T01:08:25.508Z,14.50
2019-05-25T01:09:30.288Z,14.50
2019-05-25T01:10:34.481Z,14.50
2019-05-25T01:11:39.247Z,14.50
2019-05-25T01:12:43.476Z,14.50
2019-05-25T01:13:48.302Z,14.50
2019-05-25T01:14:52.523Z,14.50
2019-05-25T01:15:57.297Z,14.40
2019-05-25T01:17:01.492Z,14.50
2019-05-25T01:18:06.296Z,14.40
2019-05-25T01:19:10.484Z,14.40
2019-05-25T01:20:15.270Z,14.40
2019-05-25T01:21:19.445Z,14.40
2019-05-25T01:22:24.225Z,14.40
2019-05-25T01:23:28.523Z,14.40
2019-05-25T01:24:43.898Z,14.40
2019-05-25T01:25:39.141Z,14.30
2019-05-25T01:26:43.963Z,14.30
2019-05-25T01:27:48.155Z,14.30
2019-05-25T01:28:52.949Z,14.30
2019-05-25T01:29:57.135Z,14.30
2019-05-25T01:31:01.915Z,14.30
2019-05-25T01:32:06.111Z,14.20
2019-05-25T01:33:10.875Z,14.20
2019-05-25T01:34:15.092Z,14.20
2019-05-25T01:35:19.867Z,14.20
2019-05-25T01:36:24.043Z,14.20
2019-05-25T01:37:28.825Z,14.20
2019-05-25T01:38:33.005Z,14.20
2019-05-25T01:39:37.945Z,14.10
2019-05-25T01:40:42.131Z,14.10
2019-05-25T01:41:46.914Z,14.20
2019-05-25T01:42:51.200Z,14.10
2019-05-25T01:43:56.019Z,14.10
2019-05-25T01:45:00.249Z,14.10
2019-05-25T01:46:05.020Z,14.10
2019-05-25T01:47:09.208Z,14.10
2019-05-25T01:48:13.967Z,14.10
2019-05-25T01:49:18.218Z,14.10
2019-05-25T01:50:22.981Z,14.10
2019-05-25T01:51:27.224Z,14.10
2019-05-25T01:52:31.987Z,14.00
2019-05-25T01:53:36.164Z,14.00
2019-05-25T01:54:41.006Z,14.10
2019-05-25T01:55:45.192Z,14.10
2019-05-25T01:56:49.968Z,14.00
2019-05-25T01:57:54.169Z,14.00
2019-05-25T01:58:59.031Z,14.00
2019-05-25T02:00:03.407Z,14.00
2019-05-25T02:01:08.234Z,14.00
2019-05-25T02:02:12.424Z,14.00
2019-05-25T02:03:17.183Z,14.00
2019-05-25T02:04:21.375Z,14.00
2019-05-25T02:05:26.177Z,14.00
2019-05-25T02:06:30.364Z,13.90
2019-05-25T02:07:35.153Z,13.90
2019-05-25T02:08:39.338Z,13.90
2019-05-25T02:09:44.119Z,13.90
2019-05-25T02:10:48.321Z,13.80
2019-05-25T02:11:53.101Z,13.80
2019-05-25T02:12:57.292Z,13.80
2019-05-25T02:14:02.069Z,13.80
2019-05-25T02:15:07.243Z,13.80
2019-05-25T02:16:12.011Z,13.80
2019-05-25T02:17:16.219Z,13.70
2019-05-25T02:18:21.007Z,13.70
2019-05-25T02:19:25.219Z,13.70
2019-05-25T02:20:30.016Z,13.70
2019-05-25T02:21:34.215Z,13.70
2019-05-25T02:22:38.983Z,13.70
2019-05-25T02:23:43.193Z,13.70
2019-05-25T02:24:47.961Z,13.70
2019-05-25T02:25:52.172Z,13.60
2019-05-25T02:26:56.961Z,13.60
2019-05-25T02:28:01.155Z,13.60
2019-05-25T02:29:05.919Z,13.60
2019-05-25T02:30:10.242Z,13.60
2019-05-25T02:31:15.062Z,13.60
2019-05-25T02:32:19.258Z,13.60
2019-05-25T02:33:24.031Z,13.60
2019-05-25T02:34:28.217Z,13.60
2019-05-25T02:35:33.004Z,13.60
2019-05-25T02:36:37.232Z,13.60
2019-05-25T02:37:42.006Z,13.50
2019-05-25T02:38:46.211Z,13.50
2019-05-25T02:39:51.024Z,13.50
2019-05-25T02:40:55.490Z,13.50
2019-05-25T02:42:00.249Z,13.50
2019-05-25T02:43:04.635Z,13.50
2019-05-25T02:44:09.531Z,13.40
2019-05-25T02:45:13.745Z,13.40
2019-05-25T02:46:18.653Z,13.40
2019-05-25T02:47:22.806Z,13.30
2019-05-25T02:48:27.600Z,13.30
2019-05-25T02:49:34.573Z,13.30
2019-05-25T02:50:39.358Z,13.40
2019-05-25T02:51:43.579Z,13.30
2019-05-25T02:52:48.484Z,13.30
2019-05-25T02:53:52.655Z,13.30
2019-05-25T02:54:57.441Z,13.20
2019-05-25T02:56:01.628Z,13.20
2019-05-25T02:57:06.429Z,13.20
2019-05-25T02:58:10.637Z,13.20
2019-05-25T02:59:15.403Z,13.20
2019-05-25T03:00:26.049Z,13.20
2019-05-25T03:01:30.897Z,13.30
2019-05-25T03:02:35.104Z,13.30
2019-05-25T03:03:39.875Z,13.30
2019-05-25T03:04:44.097Z,13.30
2019-05-25T03:05:48.884Z,13.30
2019-05-25T03:06:53.253Z,13.30
2019-05-25T03:07:58.830Z,13.30
2019-05-25T03:09:03.052Z,13.30
2019-05-25T03:10:07.831Z,13.30
2019-05-25T03:11:12.048Z,13.40
2019-05-25T03:12:16.848Z,13.40
2019-05-25T03:13:21.170Z,13.40
2019-05-25T03:14:25.966Z,13.50
2019-05-25T03:15:30.148Z,13.50
2019-05-25T03:16:35.043Z,13.50
2019-05-25T03:17:39.268Z,13.60
2019-05-25T03:18:44.039Z,13.60
2019-05-25T03:19:48.334Z,13.60
2019-05-25T03:20:53.186Z,13.70
2019-05-25T03:21:57.411Z,13.70
2019-05-25T03:23:02.201Z,13.70
2019-05-25T03:24:06.443Z,13.70
2019-05-25T03:25:11.157Z,13.70
2019-05-25T03:26:15.351Z,13.70
2019-05-25T03:27:20.266Z,13.80
2019-05-25T03:28:24.465Z,13.80
2019-05-25T03:29:29.278Z,13.80
2019-05-25T03:30:34.715Z,13.80
2019-05-25T03:31:39.476Z,13.80
2019-05-25T03:32:43.700Z,13.80
2019-05-25T03:33:48.461Z,13.80
2019-05-25T03:34:52.689Z,13.80
2019-05-25T03:35:57.470Z,13.80
2019-05-25T03:37:01.656Z,13.80
2019-05-25T03:38:06.468Z,13.80
2019-05-25T03:39:10.656Z,13.80
2019-05-25T03:40:15.432Z,13.80
2019-05-25T03:41:19.604Z,13.80
2019-05-25T03:42:24.397Z,13.80
2019-05-25T03:43:28.628Z,13.80
2019-05-25T03:44:33.395Z,13.80
2019-05-25T03:45:37.588Z,13.80
2019-05-25T03:46:42.362Z,13.80
2019-05-25T03:47:46.596Z,13.80
2019-05-25T03:48:51.490Z,13.90
2019-05-25T03:49:55.628Z,13.90
2019-05-25T03:51:00.412Z,13.90
2019-05-25T03:52:04.589Z,13.90
2019-05-25T03:53:09.401Z,13.90
2019-05-25T03:54:13.617Z,13.90
2019-05-25T03:55:18.457Z,13.90
2019-05-25T03:56:22.653Z,13.90
2019-05-25T03:57:27.422Z,14.00
2019-05-25T03:58:31.656Z,13.90
2019-05-25T03:59:36.436Z,14.00
2019-05-25T04:00:40.686Z,14.00
2019-05-25T04:01:45.505Z,13.90
2019-05-25T04:02:49.750Z,14.00
2019-05-25T04:03:54.529Z,14.00
2019-05-25T04:04:58.720Z,14.00
2019-05-25T04:06:03.518Z,14.00
2019-05-25T04:07:07.695Z,14.00
2019-05-25T04:08:12.490Z,14.00
2019-05-25T04:09:16.682Z,14.00
2019-05-25T04:10:21.460Z,14.00
2019-05-25T04:11:25.730Z,14.00
2019-05-25T04:12:30.517Z,14.00
2019-05-25T04:13:34.749Z,14.10
2019-05-25T04:14:39.519Z,14.10
2019-05-25T04:15:43.713Z,14.20
2019-05-25T04:16:48.487Z,14.20
2019-05-25T04:17:52.682Z,14.20
2019-05-25T04:18:57.491Z,14.20
2019-05-25T04:20:01.685Z,14.20
2019-05-25T04:21:06.462Z,14.20
2019-05-25T04:22:10.652Z,14.20
2019-05-25T04:23:15.425Z,14.30
2019-05-25T04:24:19.637Z,14.30
2019-05-25T04:25:24.419Z,14.30
2019-05-25T04:26:28.612Z,14.30
2019-05-25T04:27:33.391Z,14.30
2019-05-25T04:28:37.609Z,14.30
2019-05-25T04:29:42.391Z,14.30
2019-05-25T04:30:46.591Z,14.30
2019-05-25T04:31:51.426Z,14.30
2019-05-25T04:32:55.595Z,14.30
2019-05-25T04:34:00.409Z,14.30
2019-05-25T04:35:04.912Z,14.30
2019-05-25T04:36:09.685Z,14.30
2019-05-25T04:37:13.874Z,14.30
2019-05-25T04:38:18.704Z,14.40
2019-05-25T04:39:22.937Z,14.30
2019-05-25T04:40:27.704Z,14.30
2019-05-25T04:41:31.892Z,14.30
2019-05-25T04:42:36.736Z,14.40
2019-05-25T04:43:40.916Z,14.30
2019-05-25T04:44:45.728Z,14.20
2019-05-25T04:45:49.917Z,14.20
2019-05-25T04:46:54.703Z,14.20
2019-05-25T04:47:58.888Z,14.30
2019-05-25T04:49:03.685Z,14.20
2019-05-25T04:50:07.883Z,14.20
2019-05-25T04:51:12.658Z,14.20
2019-05-25T04:52:16.934Z,14.20
2019-05-25T04:53:21.700Z,14.20
2019-05-25T04:54:25.928Z,14.20
2019-05-25T04:55:30.704Z,14.20
2019-05-25T04:56:39.410Z,14.20
2019-05-25T04:57:41.399Z,14.30
2019-05-25T04:58:45.588Z,14.30
2019-05-25T04:59:50.407Z,14.30
2019-05-25T05:00:54.605Z,14.20
2019-05-25T05:01:59.384Z,14.20
2019-05-25T05:03:03.564Z,14.20
2019-05-25T05:04:08.372Z,14.20
2019-05-25T05:05:14.116Z,14.30
2019-05-25T05:06:18.884Z,14.30
2019-05-25T05:07:23.091Z,14.30
2019-05-25T05:08:27.860Z,14.30
2019-05-25T05:09:32.172Z,14.30
2019-05-25T05:10:37.017Z,14.30
2019-05-25T05:11:41.195Z,14.30
2019-05-25T05:12:45.967Z,14.40
2019-05-25T05:13:50.172Z,14.40
2019-05-25T05:14:56.573Z,14.40
2019-05-25T05:16:00.864Z,14.40
2019-05-25T05:17:05.641Z,14.50
2019-05-25T05:18:09.836Z,14.50
2019-05-25T05:19:14.644Z,14.60
2019-05-25T05:20:18.865Z,14.60
2019-05-25T05:21:23.804Z,14.60
2019-05-25T05:22:28.940Z,14.60
2019-05-25T05:23:33.912Z,14.70
2019-05-25T05:24:38.272Z,14.70
2019-05-25T05:25:43.069Z,14.70
2019-05-25T05:26:55.848Z,14.80
2019-05-25T05:27:53.776Z,14.80
2019-05-25T05:28:57.988Z,14.80
2019-05-25T05:30:02.788Z,14.80
2019-05-25T05:31:20.998Z,14.90
2019-05-25T05:32:26.589Z,14.90
2019-05-25T05:33:19.250Z,14.90
2019-05-25T05:34:24.219Z,14.90
2019-05-25T05:35:28.446Z,14.90
2019-05-25T05:36:33.273Z,15.00
2019-05-25T05:37:37.541Z,15.00
2019-05-25T05:38:42.357Z,15.00
2019-05-25T05:39:46.584Z,15.00
2019-05-25T05:40:51.352Z,15.00
2019-05-25T05:41:56.033Z,14.90
2019-05-25T05:43:00.912Z,14.90
2019-05-25T05:44:05.265Z,14.90
2019-05-25T05:45:10.128Z,14.90
2019-05-25T05:46:14.315Z,14.90
2019-05-25T05:47:21.080Z,14.90
2019-05-25T05:48:26.061Z,14.90
2019-05-25T05:49:31.000Z,14.90
2019-05-25T05:50:35.304Z,14.90
2019-05-25T05:51:40.289Z,14.90
2019-05-25T05:52:44.522Z,14.90
2019-05-25T05:53:49.391Z,14.90
2019-05-25T05:54:53.619Z,15.00
2019-05-25T05:55:58.468Z,15.00
2019-05-25T05:57:12.187Z,15.00
2019-05-25T05:58:09.639Z,15.10
2019-05-25T05:59:13.847Z,15.10
2019-05-25T06:00:18.666Z,15.10
2019-05-25T06:01:22.873Z,15.10
2019-05-25T06:02:27.758Z,15.10
2019-05-25T06:03:31.960Z,15.10
2019-05-25T06:04:36.791Z,15.10
2019-05-25T06:05:41.013Z,15.20
2019-05-25T06:06:45.808Z,15.20
2019-05-25T06:07:52.070Z,15.20
2019-05-25T06:08:56.833Z,15.20
2019-05-25T06:10:01.494Z,15.20
2019-05-25T06:11:06.328Z,15.20
2019-05-25T06:12:10.503Z,15.30
2019-05-25T06:13:15.526Z,15.30
2019-05-25T06:14:20.124Z,15.30
2019-05-25T06:15:24.927Z,15.40
2019-05-25T06:16:29.120Z,15.40
2019-05-25T06:17:34.106Z,15.40
2019-05-25T06:18:38.301Z,15.40
2019-05-25T06:19:43.069Z,15.50
2019-05-25T06:20:47.283Z,15.50
2019-05-25T06:21:52.047Z,15.60
2019-05-25T06:22:56.589Z,15.60
2019-05-25T06:24:01.347Z,15.70
2019-05-25T06:25:06.076Z,15.70
2019-05-25T06:26:10.872Z,15.70
2019-05-25T06:27:26.945Z,15.80
2019-05-25T06:28:22.532Z,15.80
2019-05-25T06:29:26.825Z,15.90
2019-05-25T06:30:31.637Z,16.00
2019-05-25T06:31:35.877Z,16.20
2019-05-25T06:32:40.647Z,16.30
2019-05-25T06:33:44.896Z,16.40
2019-05-25T06:34:49.701Z,16.40
2019-05-25T06:35:53.908Z,16.50
2019-05-25T06:36:58.687Z,16.50
2019-05-25T06:38:02.899Z,16.60
2019-05-25T06:39:08.840Z,16.60
2019-05-25T06:40:13.048Z,16.70
2019-05-25T06:41:17.852Z,16.70
2019-05-25T06:42:22.065Z,16.70
2019-05-25T06:43:26.843Z,16.70
2019-05-25T06:44:31.048Z,16.70
2019-05-25T06:45:35.816Z,16.70
2019-05-25T06:46:40.051Z,16.80
2019-05-25T06:47:44.829Z,16.80
2019-05-25T06:48:49.016Z,16.70
2019-05-25T06:49:53.780Z,16.70
2019-05-25T06:50:58.004Z,16.80
2019-05-25T06:52:02.775Z,16.80
2019-05-25T06:53:06.987Z,16.80
2019-05-25T06:54:11.768Z,16.70
2019-05-25T06:55:15.963Z,16.70
2019-05-25T06:56:20.778Z,16.70
2019-05-25T06:57:24.965Z,16.80
2019-05-25T06:58:29.749Z,16.90
2019-05-25T06:59:33.940Z,17.00
2019-05-25T07:00:38.805Z,17.00
2019-05-25T07:01:43.047Z,17.10
2019-05-25T07:02:47.836Z,17.10
2019-05-25T07:03:52.065Z,17.10
2019-05-25T07:04:56.835Z,17.10
2019-05-25T07:06:01.051Z,17.10
2019-05-25T07:07:05.840Z,17.10
2019-05-25T07:08:10.037Z,17.20
2019-05-25T07:09:14.814Z,17.20
2019-05-25T07:10:19.004Z,17.20
2019-05-25T07:11:23.812Z,17.20
2019-05-25T07:12:27.991Z,17.20
2019-05-25T07:13:32.780Z,17.20
2019-05-25T07:14:37.003Z,17.20
2019-05-25T07:15:41.780Z,17.10
2019-05-25T07:16:45.992Z,17.10
2019-05-25T07:17:50.771Z,17.10
2019-05-25T07:18:54.965Z,17.00
2019-05-25T07:19:59.733Z,17.00
2019-05-25T07:21:03.948Z,16.90
2019-05-25T07:22:08.762Z,16.90
2019-05-25T07:23:12.943Z,16.80
2019-05-25T07:24:17.721Z,16.90
2019-05-25T07:25:21.942Z,16.80
2019-05-25T07:26:26.755Z,16.80
2019-05-25T07:27:30.955Z,16.90
2019-05-25T07:28:35.754Z,17.00
2019-05-25T07:29:39.961Z,17.10
2019-05-25T07:30:46.591Z,17.10
2019-05-25T07:31:50.593Z,17.20
2019-05-25T07:32:55.379Z,17.30
2019-05-25T07:33:59.564Z,17.30
2019-05-25T07:35:04.414Z,17.20
2019-05-25T07:36:08.648Z,17.30
2019-05-25T07:37:13.459Z,17.30
2019-05-25T07:38:17.721Z,17.50
2019-05-25T07:39:22.479Z,17.60
2019-05-25T07:40:26.703Z,17.70
2019-05-25T07:41:31.488Z,17.70
2019-05-25T07:42:35.683Z,17.80
2019-05-25T07:43:40.456Z,17.70
2019-05-25T07:44:44.641Z,17.70
2019-05-25T07:45:49.422Z,17.80
2019-05-25T07:46:53.639Z,17.80
2019-05-25T07:47:58.437Z,17.90
2019-05-25T07:49:02.767Z,18.00
2019-05-25T07:50:07.901Z,18.00
2019-05-25T07:51:12.129Z,18.10
2019-05-25T07:52:16.949Z,18.30
2019-05-25T07:53:21.137Z,18.60
2019-05-25T07:54:25.940Z,18.80
2019-05-25T07:55:30.168Z,19.00
2019-05-25T07:56:34.944Z,19.10
2019-05-25T07:57:39.179Z,19.20
2019-05-25T07:58:43.953Z,19.30
2019-05-25T07:59:48.140Z,19.30
2019-05-25T08:00:52.918Z,19.20
2019-05-25T08:01:57.155Z,19.20
2019-05-25T08:03:01.964Z,19.20
2019-05-25T08:04:06.127Z,19.20
2019-05-25T08:05:10.903Z,19.20
2019-05-25T08:06:15.132Z,19.30
2019-05-25T08:07:19.936Z,19.60
2019-05-25T08:08:24.124Z,19.60
2019-05-25T08:09:28.897Z,19.70
2019-05-25T08:10:33.088Z,20.10
2019-05-25T08:11:37.870Z,20.30
2019-05-25T08:12:42.085Z,20.50
2019-05-25T08:13:47.128Z,20.60
2019-05-25T08:14:51.321Z,20.60
2019-05-25T08:15:56.101Z,20.60
2019-05-25T08:17:00.282Z,20.60
2019-05-25T08:18:05.113Z,20.60
2019-05-25T08:19:09.390Z,20.80
2019-05-25T08:20:14.359Z,20.90
2019-05-25T08:21:18.544Z,21.40
2019-05-25T08:22:23.321Z,21.90
2019-05-25T08:23:27.545Z,22.40
2019-05-25T08:24:32.313Z,22.30
2019-05-25T08:25:36.594Z,22.90
2019-05-25T08:26:41.356Z,23.10
2019-05-25T08:27:45.694Z,23.30
2019-05-25T08:28:50.480Z,23.50
2019-05-25T08:29:54.704Z,23.50
2019-05-25T08:31:01.445Z,23.40
2019-05-25T08:32:05.308Z,23.50
2019-05-25T08:33:10.168Z,23.50
2019-05-25T08:34:14.348Z,23.40
2019-05-25T08:35:19.116Z,23.70
2019-05-25T08:36:23.304Z,23.80
2019-05-25T08:37:28.080Z,23.80
2019-05-25T08:38:32.299Z,23.70
2019-05-25T08:39:37.092Z,23.70
2019-05-25T08:40:41.297Z,23.60
2019-05-25T08:41:46.077Z,23.40
2019-05-25T08:42:50.272Z,23.40
2019-05-25T08:43:55.083Z,24.00
2019-05-25T08:44:59.276Z,23.70
2019-05-25T08:46:04.164Z,23.50
2019-05-25T08:47:08.353Z,23.40
2019-05-25T08:48:13.148Z,23.20
2019-05-25T08:49:17.495Z,23.00
2019-05-25T08:50:37.149Z,22.80
2019-05-25T08:51:28.119Z,22.60
2019-05-25T08:52:32.878Z,22.50
2019-05-25T08:53:42.041Z,22.40
2019-05-25T08:54:43.536Z,22.30
2019-05-25T08:55:47.737Z,22.20
2019-05-25T08:56:52.541Z,22.10
2019-05-25T08:57:56.731Z,22.00
2019-05-25T08:59:01.540Z,21.80
2019-05-25T09:00:05.895Z,21.70
2019-05-25T09:01:10.673Z,21.60
2019-05-25T09:02:14.906Z,21.50
2019-05-25T09:03:19.682Z,21.40
2019-05-25T09:04:25.691Z,21.40
2019-05-25T09:05:30.380Z,21.30
2019-05-25T09:06:34.592Z,21.20
2019-05-25T09:07:39.396Z,21.20
2019-05-25T09:08:43.638Z,21.10
2019-05-25T09:09:48.417Z,21.00
2019-05-25T09:10:52.689Z,21.40
2019-05-25T09:11:57.391Z,21.40
2019-05-25T09:13:01.592Z,21.60
2019-05-25T09:14:06.403Z,22.00
2019-05-25T09:15:10.597Z,22.20
2019-05-25T09:16:15.487Z,22.40
2019-05-25T09:17:19.707Z,22.50
2019-05-25T09:18:24.483Z,22.60
2019-05-25T09:19:28.715Z,22.60
2019-05-25T09:20:33.492Z,22.60
2019-05-25T09:21:37.685Z,22.50
2019-05-25T09:22:42.446Z,22.50
2019-05-25T09:23:48.749Z,22.50
2019-05-25T09:24:54.197Z,23.00
2019-05-25T09:25:58.406Z,23.10
2019-05-25T09:27:03.201Z,23.60
2019-05-25T09:28:07.417Z,24.10
2019-05-25T09:29:12.517Z,24.00
2019-05-25T09:30:16.856Z,24.10
2019-05-25T09:31:21.642Z,24.10
2019-05-25T09:32:25.900Z,24.90
2019-05-25T09:33:30.736Z,25.10
2019-05-25T09:34:34.996Z,26.40
2019-05-25T09:35:39.773Z,27.70
2019-05-25T09:36:43.977Z,28.90
2019-05-25T09:37:48.730Z,29.80
2019-05-25T09:38:52.933Z,30.70
2019-05-25T09:39:57.740Z,31.70
2019-05-25T09:41:02.014Z,32.40
2019-05-25T09:42:06.791Z,33.10
2019-05-25T09:43:10.992Z,33.90
2019-05-25T09:44:15.755Z,34.40
2019-05-25T09:45:19.988Z,33.70
2019-05-25T09:46:24.748Z,33.40
2019-05-25T09:47:28.952Z,33.60
2019-05-25T09:48:33.832Z,33.10
2019-05-25T09:49:38.060Z,32.90
2019-05-25T09:50:42.883Z,32.40
2019-05-25T09:51:48.684Z,32.00
2019-05-25T09:52:53.656Z,31.10
2019-05-25T09:53:57.849Z,30.20
2019-05-25T09:55:02.693Z,29.30
2019-05-25T09:56:07.002Z,28.60
2019-05-25T09:57:11.771Z,28.10
2019-05-25T09:58:15.974Z,28.90
2019-05-25T09:59:20.790Z,29.60
2019-05-25T10:00:24.997Z,29.60
2019-05-25T10:01:29.770Z,30.00
2019-05-25T10:02:33.997Z,31.10
2019-05-25T10:03:38.761Z,32.00
2019-05-25T10:04:42.990Z,32.80
2019-05-25T10:05:47.796Z,33.10
2019-05-25T10:06:52.120Z,32.80
2019-05-25T10:07:56.880Z,32.80
2019-05-25T10:09:01.067Z,32.40
2019-05-25T10:10:06.201Z,32.00
2019-05-25T10:11:10.428Z,31.70
2019-05-25T10:12:16.313Z,31.10
2019-05-25T10:13:20.630Z,30.50
2019-05-25T10:14:25.412Z,30.00
2019-05-25T10:15:29.633Z,29.30
2019-05-25T10:16:34.407Z,28.80
2019-05-25T10:17:38.622Z,28.30
2019-05-25T10:18:43.393Z,29.00
2019-05-25T10:19:47.590Z,29.70
2019-05-25T10:20:52.413Z,30.40
2019-05-25T10:21:59.332Z,31.40
2019-05-25T10:23:03.055Z,32.40
2019-05-25T10:24:07.267Z,33.30
2019-05-25T10:25:12.052Z,33.30
2019-05-25T10:26:16.276Z,33.10
2019-05-25T10:27:21.055Z,32.30
2019-05-25T10:28:25.244Z,31.60
2019-05-25T10:29:37.245Z,30.90
2019-05-25T10:30:35.909Z,30.50
2019-05-25T10:31:40.687Z,30.10
2019-05-25T10:32:44.875Z,30.00
2019-05-25T10:33:49.649Z,29.50
2019-05-25T10:34:53.859Z,28.90
2019-05-25T10:35:58.724Z,28.50
2019-05-25T10:37:02.917Z,28.20
2019-05-25T10:38:07.691Z,27.80
2019-05-25T10:39:12.029Z,28.30
2019-05-25T10:40:16.847Z,28.70
2019-05-25T10:41:21.105Z,28.60
2019-05-25T10:42:25.880Z,28.60
2019-05-25T10:43:30.083Z,28.20
2019-05-25T10:44:34.865Z,28.30
2019-05-25T10:45:39.058Z,28.90
2019-05-25T10:46:43.989Z,30.00
2019-05-25T10:47:48.236Z,30.80
2019-05-25T10:48:53.024Z,31.10
2019-05-25T10:49:57.223Z,31.10
2019-05-25T10:51:02.105Z,31.10
2019-05-25T10:52:06.335Z,30.80
2019-05-25T10:53:11.165Z,30.30
2019-05-25T10:54:15.352Z,30.00
2019-05-25T10:55:20.136Z,29.40
2019-05-25T10:56:24.394Z,28.90
2019-05-25T10:57:29.175Z,28.30
2019-05-25T10:58:33.527Z,28.00
2019-05-25T10:59:52.027Z,27.70
2019-05-25T11:00:44.144Z,27.30
2019-05-25T11:01:48.960Z,26.90
2019-05-25T11:02:53.185Z,26.50
2019-05-25T11:03:57.961Z,26.30
2019-05-25T11:05:02.169Z,26.60
2019-05-25T11:06:06.952Z,27.90
2019-05-25T11:07:11.160Z,29.10
2019-05-25T11:08:16.761Z,29.90
2019-05-25T11:09:20.962Z,30.20
2019-05-25T11:10:25.741Z,30.60
2019-05-25T11:11:29.925Z,30.70
2019-05-25T11:12:34.761Z,30.50
2019-05-25T11:13:38.944Z,30.80
2019-05-25T11:14:43.769Z,30.90
2019-05-25T11:15:47.957Z,30.90
2019-05-25T11:16:52.779Z,30.60
2019-05-25T11:17:56.978Z,30.20
2019-05-25T11:19:01.763Z,29.70
2019-05-25T11:20:06.551Z,29.80
2019-05-25T11:21:11.294Z,29.40
2019-05-25T11:22:15.650Z,28.90
2019-05-25T11:23:20.423Z,28.30
2019-05-25T11:24:24.637Z,28.20
2019-05-25T11:25:29.404Z,28.30
2019-05-25T11:26:33.603Z,28.20
2019-05-25T11:27:38.425Z,27.90
2019-05-25T11:28:42.626Z,27.60
2019-05-25T11:29:47.397Z,27.50
2019-05-25T11:30:51.595Z,27.30
2019-05-25T11:32:01.217Z,27.20
2019-05-25T11:33:02.361Z,27.10
2019-05-25T11:34:07.161Z,27.10
2019-05-25T11:35:11.431Z,27.00
2019-05-25T11:36:16.258Z,26.80
2019-05-25T11:37:20.461Z,26.50
2019-05-25T11:38:25.258Z,26.00
2019-05-25T11:39:29.442Z,25.80
2019-05-25T11:40:34.220Z,25.80
2019-05-25T11:41:38.410Z,25.90
2019-05-25T11:42:43.207Z,26.00
2019-05-25T11:43:47.450Z,26.10
2019-05-25T11:44:52.248Z,26.20
2019-05-25T11:45:56.455Z,26.20
2019-05-25T11:47:01.232Z,26.20
2019-05-25T11:48:05.451Z,26.20
2019-05-25T11:49:22.090Z,26.10
2019-05-25T11:50:16.091Z,26.00
2019-05-25T11:51:20.893Z,26.00
2019-05-25T11:52:25.080Z,25.90
2019-05-25T11:53:29.884Z,25.60
2019-05-25T11:54:34.057Z,25.30
2019-05-25T11:55:38.842Z,25.10
2019-05-25T11:56:43.043Z,25.00
2019-05-25T11:57:47.889Z,24.80
2019-05-25T11:58:52.072Z,24.80
2019-05-25T11:59:56.856Z,25.00
2019-05-25T12:01:01.031Z,25.20
2019-05-25T12:02:05.814Z,25.10
2019-05-25T12:03:10.100Z,25.20
2019-05-25T12:04:14.932Z,25.30
2019-05-25T12:05:19.168Z,25.20
2019-05-25T12:06:23.968Z,25.10
2019-05-25T12:07:28.192Z,25.10
2019-05-25T12:08:33.029Z,24.80
2019-05-25T12:09:37.285Z,24.70
2019-05-25T12:10:42.011Z,24.40
2019-05-25T12:11:46.211Z,24.30
2019-05-25T12:12:51.312Z,24.40
2019-05-25T12:13:55.508Z,24.40
2019-05-25T12:15:00.293Z,24.50
2019-05-25T12:16:04.468Z,24.70
2019-05-25T12:17:09.299Z,24.70
2019-05-25T12:18:13.579Z,24.60
2019-05-25T12:19:18.361Z,24.50
2019-05-25T12:20:22.545Z,24.30
2019-05-25T12:21:27.324Z,24.30
2019-05-25T12:22:31.504Z,24.40
2019-05-25T12:23:36.355Z,24.40
2019-05-25T12:24:40.539Z,24.50
2019-05-25T12:25:45.353Z,24.60
2019-05-25T12:26:49.547Z,24.70
2019-05-25T12:27:54.322Z,24.90
2019-05-25T12:28:58.549Z,25.00
2019-05-25T12:30:03.350Z,25.20
2019-05-25T12:31:07.569Z,25.30
2019-05-25T12:32:12.339Z,25.40
2019-05-25T12:33:16.551Z,25.40
2019-05-25T12:34:21.357Z,25.30
2019-05-25T12:35:25.549Z,25.20
2019-05-25T12:36:30.311Z,25.20
2019-05-25T12:37:34.492Z,25.20
2019-05-25T12:38:39.310Z,25.10
2019-05-25T12:39:43.520Z,25.00
2019-05-25T12:40:53.623Z,25.00
2019-05-25T12:41:54.225Z,24.90
2019-05-25T12:42:59.037Z,24.80
2019-05-25T12:44:03.500Z,24.70
2019-05-25T12:45:08.306Z,24.50
2019-05-25T12:46:12.509Z,24.30
2019-05-25T12:47:17.275Z,24.30
2019-05-25T12:48:21.469Z,24.30
2019-05-25T12:49:26.280Z,24.30
2019-05-25T12:50:30.473Z,24.20
2019-05-25T12:51:35.252Z,24.10
2019-05-25T12:52:39.427Z,24.00
2019-05-25T12:53:44.204Z,24.00
2019-05-25T12:54:48.439Z,24.00
2019-05-25T12:55:53.200Z,23.90
2019-05-25T12:56:57.451Z,23.70
2019-05-25T12:58:02.221Z,23.60
2019-05-25T12:59:06.542Z,23.50
2019-05-25T13:00:16.217Z,23.40
2019-05-25T13:01:17.844Z,23.40
2019-05-25T13:02:22.636Z,23.50
2019-05-25T13:03:28.392Z,23.40
2019-05-25T13:04:33.341Z,23.30
2019-05-25T13:05:37.583Z,23.30
2019-05-25T13:06:42.368Z,23.30
2019-05-25T13:07:46.555Z,23.30
2019-05-25T13:08:51.360Z,23.30
2019-05-25T13:09:55.573Z,23.30
2019-05-25T13:11:00.361Z,23.40
2019-05-25T13:12:04.709Z,23.50
2019-05-25T13:13:09.489Z,23.60
2019-05-25T13:14:14.859Z,23.50
2019-05-25T13:15:19.920Z,23.40
2019-05-25T13:16:24.125Z,23.40
2019-05-25T13:17:28.902Z,23.50
2019-05-25T13:18:33.097Z,23.50
2019-05-25T13:19:37.887Z,23.50
2019-05-25T13:20:42.100Z,23.70
2019-05-25T13:21:46.879Z,23.90
2019-05-25T13:22:51.078Z,23.90
2019-05-25T13:23:55.848Z,24.10
2019-05-25T13:25:00.082Z,24.20
2019-05-25T13:26:04.862Z,24.30
2019-05-25T13:27:09.044Z,24.40
2019-05-25T13:28:13.834Z,24.40
2019-05-25T13:29:18.048Z,24.40
2019-05-25T13:30:22.854Z,24.30
2019-05-25T13:31:27.056Z,24.20
2019-05-25T13:32:31.828Z,24.20
2019-05-25T13:33:36.027Z,24.20
2019-05-25T13:34:41.903Z,24.20
2019-05-25T13:35:46.163Z,24.30
2019-05-25T13:36:50.938Z,24.40
2019-05-25T13:37:55.128Z,24.40
2019-05-25T13:38:59.926Z,24.40
2019-05-25T13:40:04.199Z,24.40
2019-05-25T13:41:09.015Z,24.40
2019-05-25T13:42:13.248Z,24.40
2019-05-25T13:43:18.021Z,24.40
2019-05-25T13:44:22.209Z,24.40
2019-05-25T13:45:26.993Z,24.30
2019-05-25T13:46:31.202Z,24.40
2019-05-25T13:47:35.994Z,24.30
2019-05-25T13:48:40.201Z,24.30
2019-05-25T13:49:44.979Z,24.20
2019-05-25T13:50:49.219Z,24.20
2019-05-25T13:51:53.991Z,24.20